Time;durP1;ratioP1;P1;durP2;ratioP2;P2;SDS_P1;SDS_P2;PMS_P1;PMS_P2;Temp;Humidity;BMP_temperature;BMP_pressure;BME280_temperature;BME280_humidity;BME280_pressure;Samples;Min_cycle;Max_cycle;Signal;HPM_P1;HPM_P2
2022/12/06 00:01:34;;;;;;;13.18;6.93;;;;;;;;;;4985245;28;99133;-72
2022/12/06 00:04:02;;;;;;;14.85;6.60;;;;;;;;;;4985983;28;98443;-71
2022/12/06 00:06:29;;;;;;;14.85;7.07;;;;;;;;;;4986336;28;99654;-72
2022/12/06 00:08:56;;;;;;;12.90;6.60;;;;;;;;;;4986421;28;99971;-72
2022/12/06 00:11:30;;;;;;;12.82;7.25;;;;;;;;;;5005397;28;98304;-72
2022/12/06 00:13:58;;;;;;;11.50;6.13;;;;;;;;;;4997341;28;98427;-71
2022/12/06 00:16:25;;;;;;;14.50;7.30;;;;;;;;;;4994705;28;100200;-72
2022/12/06 00:18:51;;;;;;;16.88;7.55;;;;;;;;;;4986077;28;99670;-72
2022/12/06 00:21:20;;;;;;;15.35;6.63;;;;;;;;;;5005324;28;101638;-72
2022/12/06 00:23:48;;;;;;;11.52;5.93;;;;;;;;;;4996516;28;98441;-72
2022/12/06 00:26:15;;;;;;;11.90;7.30;;;;;;;;;;4994443;28;99886;-71
2022/12/06 00:28:42;;;;;;;12.20;6.38;;;;;;;;;;4985636;28;100149;-72
2022/12/06 00:31:12;;;;;;;12.57;6.70;;;;;;;;;;4993562;28;98391;-72
2022/12/06 00:33:38;;;;;;;12.52;6.50;;;;;;;;;;4992541;28;98814;-71
2022/12/06 00:36:06;;;;;;;11.65;6.25;;;;;;;;;;4996402;28;100085;-72
2022/12/06 00:38:36;;;;;;;14.98;6.72;;;;;;;;;;5003882;28;98414;-72
2022/12/06 00:41:06;;;;;;;10.90;6.35;;;;;;;;;;5001443;28;99126;-72
2022/12/06 00:43:33;;;;;;;18.83;7.47;;;;;;;;;;4988253;28;98560;-73
2022/12/06 00:46:00;;;;;;;12.48;6.57;;;;;;;;;;4996471;28;99631;-73
2022/12/06 00:48:26;;;;;;;16.83;7.03;;;;;;;;;;4993804;28;99084;-72
2022/12/06 00:50:53;;;;;;;9.07;6.00;;;;;;;;;;4993264;28;98618;-71
2022/12/06 00:53:19;;;;;;;15.20;6.40;;;;;;;;;;5008343;28;99464;-71
2022/12/06 00:55:46;;;;;;;19.15;6.25;;;;;;;;;;4995378;28;99454;-71
2022/12/06 00:58:13;;;;;;;17.52;5.95;;;;;;;;;;4996172;28;98688;-71
2022/12/06 01:00:39;;;;;;;11.90;6.15;;;;;;;;;;5010910;28;99804;-72
2022/12/06 01:03:06;;;;;;;13.70;6.53;;;;;;;;;;5000627;28;98359;-71
2022/12/06 01:05:32;;;;;;;15.57;6.10;;;;;;;;;;5007113;28;99728;-72
2022/12/06 01:07:59;;;;;;;19.92;6.30;;;;;;;;;;4997303;28;99603;-71
2022/12/06 01:10:25;;;;;;;14.38;5.93;;;;;;;;;;4996829;28;98344;-72
2022/12/06 01:12:52;;;;;;;17.20;6.38;;;;;;;;;;4996035;28;98515;-72
2022/12/06 01:15:18;;;;;;;15.05;6.22;;;;;;;;;;5000176;28;99915;-72
2022/12/06 01:17:44;;;;;;;18.33;6.10;;;;;;;;;;5004243;28;98417;-71
2022/12/06 01:20:11;;;;;;;12.35;6.50;;;;;;;;;;4994879;28;99425;-72
2022/12/06 01:22:37;;;;;;;13.30;5.63;;;;;;;;;;5008831;28;100540;-71
2022/12/06 01:25:03;;;;;;;15.50;6.55;;;;;;;;;;5002306;28;98748;-71
2022/12/06 01:27:30;;;;;;;12.27;5.90;;;;;;;;;;4987793;28;100103;-72
2022/12/06 01:29:56;;;;;;;14.52;5.40;;;;;;;;;;4993927;28;98679;-72
2022/12/06 01:32:23;;;;;;;14.20;5.57;;;;;;;;;;5003736;28;99654;-72
2022/12/06 01:34:52;;;;;;;16.55;6.78;;;;;;;;;;4996873;28;99949;-71
2022/12/06 01:37:19;;;;;;;10.48;6.18;;;;;;;;;;5002566;28;100722;-72
2022/12/06 01:39:45;;;;;;;13.32;5.97;;;;;;;;;;5005548;28;99364;-72
2022/12/06 01:42:12;;;;;;;16.30;5.28;;;;;;;;;;4999389;28;98431;-72
2022/12/06 01:44:39;;;;;;;9.82;5.28;;;;;;;;;;5010183;28;98323;-72
2022/12/06 01:47:26;;;;;;;14.57;5.93;;;;;;;;;;4991352;28;100226;-72
2022/12/06 01:49:59;;;;;;;17.20;5.18;;;;;;;;;;4996275;28;98447;-72
2022/12/06 01:52:30;;;;;;;15.88;5.93;;;;;;;;;;4996626;28;98270;-72
2022/12/06 01:54:57;;;;;;;10.75;5.72;;;;;;;;;;4998473;28;100210;-72
2022/12/06 01:57:24;;;;;;;9.00;5.32;;;;;;;;;;4992737;28;99308;-72
2022/12/06 01:59:50;;;;;;;15.93;5.80;;;;;;;;;;4979080;28;100398;-71
2022/12/06 02:02:17;;;;;;;15.98;6.97;;;;;;;;;;5001747;28;100147;-72
2022/12/06 02:04:43;;;;;;;15.18;5.18;;;;;;;;;;5005116;28;99383;-72
2022/12/06 02:07:10;;;;;;;9.55;4.97;;;;;;;;;;4996086;28;99282;-72
2022/12/06 02:09:38;;;;;;;10.95;5.40;;;;;;;;;;4986923;28;98289;-73
2022/12/06 02:12:09;;;;;;;10.93;5.57;;;;;;;;;;5006516;28;98938;-72
2022/12/06 02:14:36;;;;;;;13.07;6.13;;;;;;;;;;4992789;28;100284;-72
2022/12/06 02:17:21;;;;;;;10.25;5.45;;;;;;;;;;5003694;28;98350;-71
2022/12/06 02:20:06;;;;;;;26.35;5.22;;;;;;;;;;4987694;28;99304;-71
2022/12/06 02:22:41;;;;;;;14.00;5.20;;;;;;;;;;4994297;28;99745;-72
2022/12/06 02:25:10;;;;;;;16.10;6.20;;;;;;;;;;4989610;28;98831;-72
2022/12/06 02:27:39;;;;;;;14.25;4.90;;;;;;;;;;5001360;28;99734;-72
2022/12/06 02:30:33;;;;;;;6.93;2.70;;;;;;;;;;4998435;28;98537;-72
2022/12/06 02:33:04;;;;;;;15.63;4.57;;;;;;;;;;4998263;28;98704;-72
2022/12/06 02:35:33;;;;;;;12.25;4.43;;;;;;;;;;4987408;28;99994;-72
2022/12/06 02:38:18;;;;;;;9.98;4.53;;;;;;;;;;4994905;28;98226;-72
2022/12/06 02:40:49;;;;;;;10.48;4.72;;;;;;;;;;4987677;28;99417;-71
2022/12/06 02:43:26;;;;;;;12.23;5.07;;;;;;;;;;4995381;28;100257;-71
2022/12/06 02:45:55;;;;;;;8.20;4.60;;;;;;;;;;4995646;28;99085;-71
2022/12/06 02:48:24;;;;;;;9.50;4.82;;;;;;;;;;4989997;28;99404;-71
2022/12/06 02:51:05;;;;;;;17.00;5.50;;;;;;;;;;5003485;28;99173;-72
2022/12/06 02:53:32;;;;;;;12.13;4.72;;;;;;;;;;4996522;28;98537;-72
2022/12/06 02:55:59;;;;;;;6.60;4.50;;;;;;;;;;4998276;28;99446;-73
2022/12/06 02:58:25;;;;;;;12.43;4.78;;;;;;;;;;4997751;28;98264;-72
2022/12/06 03:00:58;;;;;;;14.43;4.60;;;;;;;;;;5006977;28;99604;-73
2022/12/06 03:03:30;;;;;;;9.32;4.75;;;;;;;;;;4996578;28;98984;-72
2022/12/06 03:06:05;;;;;;;12.35;4.20;;;;;;;;;;4996587;28;98222;-72
2022/12/06 03:08:31;;;;;;;12.88;4.65;;;;;;;;;;4995723;28;98926;-72
2022/12/06 03:10:59;;;;;;;9.38;4.25;;;;;;;;;;4991599;28;99550;-72
2022/12/06 03:13:35;;;;;;;9.00;4.47;;;;;;;;;;5000237;28;98380;-72
2022/12/06 03:16:01;;;;;;;9.25;4.18;;;;;;;;;;4992181;28;99121;-73
2022/12/06 03:18:39;;;;;;;8.73;4.45;;;;;;;;;;4996546;28;98320;-72
2022/12/06 03:21:07;;;;;;;10.23;3.85;;;;;;;;;;5000334;28;98933;-72
2022/12/06 03:23:36;;;;;;;11.35;4.40;;;;;;;;;;4989945;28;99305;-72
2022/12/06 03:26:04;;;;;;;7.43;4.22;;;;;;;;;;4997296;28;98834;-71
2022/12/06 03:28:30;;;;;;;7.25;4.20;;;;;;;;;;4999276;28;99990;-71
2022/12/06 03:30:59;;;;;;;4.30;3.72;;;;;;;;;;4990974;28;99297;-73
2022/12/06 03:33:26;;;;;;;9.75;3.80;;;;;;;;;;4997147;28;98061;-72
2022/12/06 03:35:53;;;;;;;8.63;4.53;;;;;;;;;;5001084;28;99487;-72
2022/12/06 03:38:26;;;;;;;9.10;4.28;;;;;;;;;;5006677;28;98300;-73
2022/12/06 03:40:54;;;;;;;9.05;4.20;;;;;;;;;;4990859;28;99408;-72
2022/12/06 03:43:20;;;;;;;8.00;5.05;;;;;;;;;;5004616;28;99311;-72
2022/12/06 03:46:09;;;;;;;8.13;4.55;;;;;;;;;;4997236;28;99995;-71
2022/12/06 03:48:36;;;;;;;11.18;4.60;;;;;;;;;;4997174;28;99504;-73
2022/12/06 03:51:04;;;;;;;9.75;4.20;;;;;;;;;;4994001;28;99286;-73
2022/12/06 03:53:31;;;;;;;5.15;4.07;;;;;;;;;;4993271;28;98598;-70
2022/12/06 03:55:57;;;;;;;7.85;4.68;;;;;;;;;;4989083;28;99417;-71
2022/12/06 03:58:24;;;;;;;6.90;3.83;;;;;;;;;;5000699;28;99964;-71
2022/12/06 04:00:50;;;;;;;6.22;3.35;;;;;;;;;;4996895;28;98640;-72
2022/12/06 04:03:17;;;;;;;7.35;4.13;;;;;;;;;;5002576;28;100078;-71
2022/12/06 04:05:43;;;;;;;12.20;3.78;;;;;;;;;;4994274;28;98432;-71
2022/12/06 04:08:10;;;;;;;8.43;3.85;;;;;;;;;;5004403;28;99320;-72
2022/12/06 04:10:36;;;;;;;7.80;3.33;;;;;;;;;;4997593;28;99975;-72
2022/12/06 04:13:04;;;;;;;7.80;3.97;;;;;;;;;;4997228;28;98300;-71
2022/12/06 04:15:35;;;;;;;6.18;3.20;;;;;;;;;;4990861;28;100062;-72
2022/12/06 04:18:15;;;;;;;5.15;3.35;;;;;;;;;;4991271;28;98668;-72
2022/12/06 04:23:39;;;;;;;7.57;3.50;;;;;;;;;;4993880;28;100077;-72
2022/12/06 04:26:07;;;;;;;3.47;3.25;;;;;;;;;;4997654;28;99857;-72
2022/12/06 04:39:34;;;;;;;7.47;4.07;;;;;;;;;;4994438;28;100070;-72
2022/12/06 04:44:46;;;;;;;16.25;6.63;;;;;;;;;;5008738;28;99553;-72
2022/12/06 04:47:12;;;;;;;5.22;2.95;;;;;;;;;;4996762;28;99708;-72
2022/12/06 04:49:39;;;;;;;4.38;3.05;;;;;;;;;;4993310;28;98520;-72
2022/12/06 04:52:06;;;;;;;7.20;2.83;;;;;;;;;;4999827;28;99010;-73
2022/12/06 04:54:32;;;;;;;8.05;3.30;;;;;;;;;;4992564;28;98294;-73
2022/12/06 04:56:59;;;;;;;9.38;3.08;;;;;;;;;;5000197;28;99327;-72
2022/12/06 04:59:25;;;;;;;3.78;2.63;;;;;;;;;;4999398;28;100351;-72
2022/12/06 05:01:52;;;;;;;11.52;3.53;;;;;;;;;;4994560;28;98264;-72
2022/12/06 05:04:18;;;;;;;8.50;3.50;;;;;;;;;;4996821;28;99531;-71
2022/12/06 05:06:45;;;;;;;3.78;2.50;;;;;;;;;;4989117;28;98317;-72
2022/12/06 05:09:12;;;;;;;9.48;3.42;;;;;;;;;;4997513;28;99330;-71
2022/12/06 05:11:38;;;;;;;10.25;3.30;;;;;;;;;;4995845;28;100210;-72
2022/12/06 05:14:04;;;;;;;8.13;3.30;;;;;;;;;;4988838;28;98334;-72
2022/12/06 05:16:31;;;;;;;8.82;3.10;;;;;;;;;;4999619;28;99671;-72
2022/12/06 05:18:57;;;;;;;11.27;3.33;;;;;;;;;;4999849;28;99527;-72
2022/12/06 05:21:24;;;;;;;4.82;2.97;;;;;;;;;;4996431;28;98922;-72
2022/12/06 05:23:54;;;;;;;4.68;3.00;;;;;;;;;;4999591;28;99458;-72
2022/12/06 05:26:22;;;;;;;9.15;2.67;;;;;;;;;;5002166;28;100195;-72
2022/12/06 05:28:48;;;;;;;4.80;2.90;;;;;;;;;;4996367;28;99511;-72
2022/12/06 05:31:15;;;;;;;6.45;2.88;;;;;;;;;;4992723;28;100266;-72
2022/12/06 05:33:42;;;;;;;5.22;2.03;;;;;;;;;;5007028;28;98925;-71
2022/12/06 05:36:09;;;;;;;3.45;2.50;;;;;;;;;;5002145;28;99429;-71
2022/12/06 05:38:35;;;;;;;7.32;2.65;;;;;;;;;;4994997;28;98945;-71
2022/12/06 05:41:02;;;;;;;13.18;3.05;;;;;;;;;;4998753;28;98394;-72
2022/12/06 05:43:29;;;;;;;7.38;3.75;;;;;;;;;;4998580;28;99330;-71
2022/12/06 05:45:55;;;;;;;4.88;3.50;;;;;;;;;;4995739;28;100073;-72
2022/12/06 05:48:22;;;;;;;2.90;2.70;;;;;;;;;;4998642;28;98278;-72
2022/12/06 05:50:49;;;;;;;8.05;4.40;;;;;;;;;;4991369;28;98975;-72
2022/12/06 05:53:15;;;;;;;6.55;3.67;;;;;;;;;;4992255;28;98360;-72
2022/12/06 05:55:42;;;;;;;3.42;3.03;;;;;;;;;;4990541;28;98517;-72
2022/12/06 05:58:09;;;;;;;5.72;3.00;;;;;;;;;;4996675;28;100377;-72
2022/12/06 06:00:36;;;;;;;10.27;3.38;;;;;;;;;;5003895;28;98695;-72
2022/12/06 06:03:02;;;;;;;3.72;3.08;;;;;;;;;;4987838;28;98760;-71
2022/12/06 06:05:29;;;;;;;6.75;3.47;;;;;;;;;;5003996;28;98877;-73
2022/12/06 06:07:56;;;;;;;9.48;6.13;;;;;;;;;;4991126;28;98366;-73
2022/12/06 06:10:23;;;;;;;8.10;3.30;;;;;;;;;;4994963;28;98595;-73
2022/12/06 06:12:50;;;;;;;5.18;3.15;;;;;;;;;;4989160;28;98586;-73
2022/12/06 06:15:16;;;;;;;12.27;2.88;;;;;;;;;;4993193;28;98855;-73
2022/12/06 06:17:42;;;;;;;2.83;2.63;;;;;;;;;;4989012;28;98825;-72
2022/12/06 06:20:10;;;;;;;6.53;2.75;;;;;;;;;;5000563;28;98303;-71
2022/12/06 06:22:37;;;;;;;7.32;2.95;;;;;;;;;;4997634;28;98746;-72
2022/12/06 06:25:05;;;;;;;9.82;2.90;;;;;;;;;;4991923;28;100410;-72
2022/12/06 06:27:32;;;;;;;4.95;3.03;;;;;;;;;;4999305;28;98281;-72
2022/12/06 06:29:59;;;;;;;6.32;3.40;;;;;;;;;;4991373;28;98965;-72
2022/12/06 06:32:25;;;;;;;6.40;2.65;;;;;;;;;;4995415;28;98886;-72
2022/12/06 06:34:52;;;;;;;6.22;2.97;;;;;;;;;;5003740;28;99686;-72
2022/12/06 06:37:18;;;;;;;3.20;3.00;;;;;;;;;;4996810;28;99104;-72
2022/12/06 06:39:44;;;;;;;6.82;3.45;;;;;;;;;;4997736;28;98343;-72
2022/12/06 06:42:11;;;;;;;7.80;2.97;;;;;;;;;;4994820;28;98735;-72
2022/12/06 06:44:37;;;;;;;3.85;3.30;;;;;;;;;;5003274;28;100176;-73
2022/12/06 06:47:04;;;;;;;3.47;2.60;;;;;;;;;;5006565;28;98641;-72
2022/12/06 06:49:31;;;;;;;8.45;3.63;;;;;;;;;;4997095;28;99407;-72
2022/12/06 06:51:57;;;;;;;3.63;3.03;;;;;;;;;;4992003;28;99078;-72
2022/12/06 06:54:26;;;;;;;9.43;2.97;;;;;;;;;;4992679;28;98606;-73
2022/12/06 06:56:56;;;;;;;9.60;3.35;;;;;;;;;;5005430;28;99553;-72
2022/12/06 06:59:23;;;;;;;9.52;3.58;;;;;;;;;;5006255;28;98505;-72
2022/12/06 07:01:49;;;;;;;3.30;2.97;;;;;;;;;;5003799;28;98808;-71
2022/12/06 07:04:16;;;;;;;11.02;3.35;;;;;;;;;;4996753;28;100502;-71
2022/12/06 07:06:42;;;;;;;4.88;3.25;;;;;;;;;;5002799;28;98424;-71
2022/12/06 07:09:09;;;;;;;5.60;3.25;;;;;;;;;;4998780;28;98638;-73
2022/12/06 07:11:36;;;;;;;5.53;3.55;;;;;;;;;;5002571;28;99990;-73
2022/12/06 07:14:02;;;;;;;16.95;4.95;;;;;;;;;;5002149;28;98200;-74
2022/12/06 07:16:29;;;;;;;8.63;3.72;;;;;;;;;;5004429;28;100062;-73
2022/12/06 07:18:55;;;;;;;7.30;3.80;;;;;;;;;;4994759;28;99019;-71
2022/12/06 07:21:24;;;;;;;11.00;3.35;;;;;;;;;;5002578;28;99530;-73
2022/12/06 07:23:51;;;;;;;5.72;4.00;;;;;;;;;;4994082;28;99931;-71
2022/12/06 07:26:18;;;;;;;7.05;4.22;;;;;;;;;;4996422;28;99780;-71
2022/12/06 07:28:45;;;;;;;5.97;3.42;;;;;;;;;;5005811;28;99849;-71
2022/12/06 07:31:14;;;;;;;8.80;3.60;;;;;;;;;;4993027;28;100019;-72
2022/12/06 07:33:41;;;;;;;6.97;3.95;;;;;;;;;;4993438;28;98271;-72
2022/12/06 07:36:08;;;;;;;4.13;3.83;;;;;;;;;;4999307;28;99837;-72
2022/12/06 07:38:39;;;;;;;5.38;3.30;;;;;;;;;;4999674;28;99086;-72
2022/12/06 07:46:38;;;;;;;5.47;3.67;;;;;;;;;;4986098;28;98565;-71
2022/12/06 07:49:04;;;;;;;8.82;3.42;;;;;;;;;;5000799;28;98899;-70
2022/12/06 07:51:31;;;;;;;4.85;3.60;;;;;;;;;;5004776;28;99959;-70
2022/12/06 07:53:57;;;;;;;11.68;4.68;;;;;;;;;;4992251;28;98746;-71
2022/12/06 07:56:24;;;;;;;3.90;3.55;;;;;;;;;;4993708;28;98642;-71
2022/12/06 07:58:50;;;;;;;7.68;4.03;;;;;;;;;;4994419;28;100172;-72
2022/12/06 08:01:17;;;;;;;11.07;3.92;;;;;;;;;;5001953;28;98802;-72
2022/12/06 08:03:43;;;;;;;9.52;4.75;;;;;;;;;;5008532;28;99123;-73
2022/12/06 08:06:10;;;;;;;4.43;3.80;;;;;;;;;;5004198;28;98795;-73
2022/12/06 08:08:36;;;;;;;6.47;4.00;;;;;;;;;;5001432;28;98909;-73
2022/12/06 08:11:04;;;;;;;7.28;3.92;;;;;;;;;;4995120;28;100121;-73
2022/12/06 08:13:31;;;;;;;5.60;4.97;;;;;;;;;;4998333;28;98460;-73
2022/12/06 08:15:58;;;;;;;8.63;4.25;;;;;;;;;;5000727;28;99494;-73
2022/12/06 08:18:24;;;;;;;5.65;3.60;;;;;;;;;;5004289;28;99844;-72
2022/12/06 08:20:54;;;;;;;7.63;3.88;;;;;;;;;;4992473;28;98269;-72
2022/12/06 08:23:20;;;;;;;8.60;4.32;;;;;;;;;;4989902;28;99248;-73
2022/12/06 08:25:54;;;;;;;16.45;4.63;;;;;;;;;;5002854;28;98369;-72
2022/12/06 08:28:21;;;;;;;15.90;4.85;;;;;;;;;;5001176;28;99597;-71
2022/12/06 08:30:47;;;;;;;7.45;4.35;;;;;;;;;;5007840;28;99012;-72
2022/12/06 08:33:13;;;;;;;9.02;4.07;;;;;;;;;;5000940;28;98324;-72
2022/12/06 08:35:40;;;;;;;181.15;8.25;;;;;;;;;;5000858;28;99052;-72
2022/12/06 08:38:06;;;;;;;16.25;4.32;;;;;;;;;;5003624;28;100856;-72
2022/12/06 08:40:35;;;;;;;4.10;3.70;;;;;;;;;;5001084;28;98288;-71
2022/12/06 08:43:01;;;;;;;5.35;4.82;;;;;;;;;;5005269;28;99762;-70
2022/12/06 08:45:28;;;;;;;11.95;4.80;;;;;;;;;;5002647;28;100009;-70
2022/12/06 08:47:54;;;;;;;5.68;4.47;;;;;;;;;;5000027;28;99414;-72
2022/12/06 08:50:20;;;;;;;8.25;4.90;;;;;;;;;;5004287;28;99338;-70
2022/12/06 08:52:47;;;;;;;6.38;3.80;;;;;;;;;;4997051;28;98367;-73
2022/12/06 08:55:13;;;;;;;6.55;4.57;;;;;;;;;;5000620;28;99539;-73
2022/12/06 08:57:39;;;;;;;5.40;4.90;;;;;;;;;;5001011;28;99237;-73
2022/12/06 09:00:06;;;;;;;8.73;5.50;;;;;;;;;;4996523;28;98291;-73
2022/12/06 09:02:32;;;;;;;6.47;5.10;;;;;;;;;;5004123;28;99704;-72
2022/12/06 09:04:59;;;;;;;16.33;5.95;;;;;;;;;;4999316;28;99900;-73
2022/12/06 09:07:25;;;;;;;6.10;4.85;;;;;;;;;;5008281;28;99655;-73
2022/12/06 09:09:52;;;;;;;8.57;5.38;;;;;;;;;;5003996;28;100276;-73
2022/12/06 09:12:19;;;;;;;7.78;5.65;;;;;;;;;;4988655;28;98526;-73
2022/12/06 09:14:45;;;;;;;9.38;5.05;;;;;;;;;;4997209;28;99832;-73
2022/12/06 09:17:11;;;;;;;6.07;5.25;;;;;;;;;;4994139;28;100011;-71
2022/12/06 09:19:38;;;;;;;9.38;5.50;;;;;;;;;;4998738;28;98715;-73
2022/12/06 09:22:04;;;;;;;7.97;5.82;;;;;;;;;;5004636;28;99730;-73
2022/12/06 09:24:30;;;;;;;8.88;5.00;;;;;;;;;;4999016;28;100299;-72
2022/12/06 09:26:57;;;;;;;7.88;5.18;;;;;;;;;;5003137;28;99694;-73
2022/12/06 09:29:23;;;;;;;13.27;6.80;;;;;;;;;;4999532;28;99076;-72
2022/12/06 09:31:50;;;;;;;7.63;5.07;;;;;;;;;;5003167;28;99171;-72
2022/12/06 09:34:16;;;;;;;6.03;5.47;;;;;;;;;;5000247;28;99295;-72
2022/12/06 09:36:45;;;;;;;5.63;4.93;;;;;;;;;;4999638;28;99665;-72
2022/12/06 09:39:16;;;;;;;7.68;5.20;;;;;;;;;;4999468;28;98295;-72
2022/12/06 09:41:52;;;;;;;9.18;4.70;;;;;;;;;;4999291;28;99518;-72
2022/12/06 09:44:35;;;;;;;6.32;5.15;;;;;;;;;;4992466;28;99557;-72
2022/12/06 09:47:04;;;;;;;9.95;5.50;;;;;;;;;;5003486;28;98263;-72
2022/12/06 09:49:39;;;;;;;9.15;4.90;;;;;;;;;;4996422;28;99784;-71
2022/12/06 09:52:24;;;;;;;9.80;4.93;;;;;;;;;;4998773;28;98314;-72
2022/12/06 09:54:51;;;;;;;9.45;4.70;;;;;;;;;;4989655;28;98616;-71
2022/12/06 09:57:31;;;;;;;7.55;4.38;;;;;;;;;;4999340;28;99545;-71
2022/12/06 10:00:07;;;;;;;8.63;4.65;;;;;;;;;;4999859;28;98559;-71
2022/12/06 10:02:54;;;;;;;10.55;4.35;;;;;;;;;;5001386;28;99418;-71
2022/12/06 10:05:23;;;;;;;12.50;4.15;;;;;;;;;;4996886;28;99119;-71
2022/12/06 10:07:53;;;;;;;10.13;5.15;;;;;;;;;;4997455;28;98693;-71
2022/12/06 10:10:23;;;;;;;10.57;3.33;;;;;;;;;;5008141;28;98480;-70
2022/12/06 10:12:58;;;;;;;6.95;3.67;;;;;;;;;;4998671;28;98654;-71
2022/12/06 10:15:31;;;;;;;6.72;3.47;;;;;;;;;;4997643;28;99221;-71
2022/12/06 10:18:03;;;;;;;10.00;4.00;;;;;;;;;;4996385;28;99159;-71
2022/12/06 10:20:29;;;;;;;4.80;3.35;;;;;;;;;;5000634;28;98729;-72
2022/12/06 10:23:03;;;;;;;7.13;3.58;;;;;;;;;;4998322;28;98687;-71
2022/12/06 10:25:50;;;;;;;5.75;3.85;;;;;;;;;;4997591;28;99214;-70
2022/12/06 10:28:29;;;;;;;4.00;3.25;;;;;;;;;;5002436;28;98591;-73
2022/12/06 10:31:00;;;;;;;8.98;4.30;;;;;;;;;;4994482;28;98749;-71
2022/12/06 10:33:39;;;;;;;9.27;3.58;;;;;;;;;;5007852;28;98311;-71
2022/12/06 10:36:06;;;;;;;6.88;3.70;;;;;;;;;;5001446;28;98812;-71
2022/12/06 10:38:33;;;;;;;12.35;5.93;;;;;;;;;;4997240;28;99306;-72
2022/12/06 10:40:59;;;;;;;4.03;3.72;;;;;;;;;;4997686;28;99391;-71
2022/12/06 10:43:28;;;;;;;4.60;3.42;;;;;;;;;;4993872;28;98611;-71
2022/12/06 10:49:04;;;;;;;4.10;3.75;;;;;;;;;;4998064;28;98331;-71
2022/12/06 10:51:43;;;;;;;5.40;3.95;;;;;;;;;;4992634;28;99378;-71
2022/12/06 10:54:17;;;;;;;4.45;3.78;;;;;;;;;;5004132;28;99967;-71
2022/12/06 10:56:44;;;;;;;4.90;3.95;;;;;;;;;;5002489;28;98630;-71
2022/12/06 10:59:16;;;;;;;6.25;3.85;;;;;;;;;;4994873;28;99161;-71
2022/12/06 11:01:43;;;;;;;8.55;4.03;;;;;;;;;;4995236;28;98299;-71
2022/12/06 11:04:15;;;;;;;6.13;3.58;;;;;;;;;;5003582;28;98668;-71
2022/12/06 11:06:45;;;;;;;7.50;3.70;;;;;;;;;;4997843;28;99122;-71
2022/12/06 11:09:25;;;;;;;8.60;3.75;;;;;;;;;;4995923;28;98836;-71
2022/12/06 11:11:51;;;;;;;6.68;3.88;;;;;;;;;;5000030;28;100175;-71
2022/12/06 11:14:22;;;;;;;5.43;4.20;;;;;;;;;;5001556;28;100488;-71
2022/12/06 11:16:54;;;;;;;3.70;3.38;;;;;;;;;;5002387;28;99811;-71
2022/12/06 11:19:43;;;;;;;5.67;3.93;;;;;;;;;;4997760;28;99876;-71
2022/12/06 11:22:23;;;;;;;10.38;3.85;;;;;;;;;;4989458;28;98307;-72
2022/12/06 11:25:28;;;;;;;9.95;4.25;;;;;;;;;;4998441;28;99838;-71
2022/12/06 11:27:58;;;;;;;7.38;3.90;;;;;;;;;;4886717;28;99202;-71
2022/12/06 11:30:26;;;;;;;10.48;3.80;;;;;;;;;;4883066;28;100191;-71
2022/12/06 11:32:54;;;;;;;5.47;4.00;;;;;;;;;;4934709;28;99955;-71
2022/12/06 11:35:22;;;;;;;9.50;4.05;;;;;;;;;;5000431;28;99125;-71
2022/12/06 11:37:52;;;;;;;4.22;3.70;;;;;;;;;;5003635;28;99001;-71
2022/12/06 11:40:24;;;;;;;6.75;4.07;;;;;;;;;;4998489;28;99450;-71
2022/12/06 11:42:50;;;;;;;6.07;3.58;;;;;;;;;;5000453;28;98359;-71
2022/12/06 11:45:46;;;;;;;5.40;3.45;;;;;;;;;;5003822;28;99227;-72
2022/12/06 11:48:19;;;;;;;4.97;3.88;;;;;;;;;;4976660;28;99648;-72
2022/12/06 11:50:47;;;;;;;8.27;3.45;;;;;;;;;;4995531;28;98885;-71
2022/12/06 11:53:35;;;;;;;4.82;3.88;;;;;;;;;;4995936;28;98502;-71
2022/12/06 11:56:05;;;;;;;4.85;3.92;;;;;;;;;;4999122;28;100056;-71
2022/12/06 11:58:36;;;;;;;3.92;3.50;;;;;;;;;;4998244;28;98634;-71
2022/12/06 12:01:04;;;;;;;4.18;3.78;;;;;;;;;;5001119;28;100143;-71
2022/12/06 12:03:32;;;;;;;6.88;3.60;;;;;;;;;;5000907;28;99300;-71
2022/12/06 12:06:17;;;;;;;8.85;3.80;;;;;;;;;;5000857;28;98619;-72
2022/12/06 12:09:10;;;;;;;5.95;3.05;;;;;;;;;;4987478;28;100131;-71
2022/12/06 12:11:38;;;;;;;3.78;3.22;;;;;;;;;;4993691;28;98693;-71
2022/12/06 12:14:15;;;;;;;3.70;3.40;;;;;;;;;;5002459;28;99446;-71
2022/12/06 12:16:45;;;;;;;5.05;2.70;;;;;;;;;;5001435;28;100160;-72
2022/12/06 12:19:23;;;;;;;5.88;2.67;;;;;;;;;;5004222;28;98364;-71
2022/12/06 12:21:52;;;;;;;7.60;2.80;;;;;;;;;;5002553;28;99227;-71
2022/12/06 12:24:38;;;;;;;8.10;3.10;;;;;;;;;;4996662;28;99143;-72
2022/12/06 12:27:44;;;;;;;6.80;3.03;;;;;;;;;;5000314;28;98353;-71
2022/12/06 12:30:13;;;;;;;3.45;2.80;;;;;;;;;;4996330;28;100047;-70
2022/12/06 12:32:40;;;;;;;6.32;3.05;;;;;;;;;;5003085;28;98366;-73
2022/12/06 12:35:19;;;;;;;4.15;3.10;;;;;;;;;;5004724;28;98609;-73
2022/12/06 12:37:47;;;;;;;5.03;2.83;;;;;;;;;;4997114;28;99229;-72
2022/12/06 12:40:39;;;;;;;4.97;2.65;;;;;;;;;;5004038;28;98276;-72
2022/12/06 12:43:05;;;;;;;7.75;2.38;;;;;;;;;;4991745;28;99632;-71
2022/12/06 12:45:32;;;;;;;9.52;2.95;;;;;;;;;;5000857;28;99724;-72
2022/12/06 12:48:00;;;;;;;6.53;2.58;;;;;;;;;;5004166;28;99649;-71
2022/12/06 12:50:28;;;;;;;4.10;2.70;;;;;;;;;;5004217;28;98667;-70
2022/12/06 12:52:54;;;;;;;3.10;2.80;;;;;;;;;;5000611;28;98418;-72
2022/12/06 12:55:25;;;;;;;4.20;3.17;;;;;;;;;;5000689;28;99498;-72
2022/12/06 12:57:53;;;;;;;4.78;2.60;;;;;;;;;;5005758;28;99946;-72
2022/12/06 13:00:21;;;;;;;4.07;2.47;;;;;;;;;;5000876;28;99557;-72
2022/12/06 13:02:59;;;;;;;4.68;2.83;;;;;;;;;;4995425;28;100120;-72
2022/12/06 13:05:27;;;;;;;6.85;2.60;;;;;;;;;;4995038;28;100444;-72
2022/12/06 13:08:11;;;;;;;4.18;2.20;;;;;;;;;;5005184;28;98332;-72
2022/12/06 13:10:42;;;;;;;3.03;2.42;;;;;;;;;;4993200;28;98473;-72
2022/12/06 13:13:19;;;;;;;2.75;2.10;;;;;;;;;;5000083;28;98598;-72
2022/12/06 13:15:47;;;;;;;3.85;2.55;;;;;;;;;;4993599;28;98902;-72
2022/12/06 13:18:26;;;;;;;7.93;2.58;;;;;;;;;;4995107;28;99181;-72
2022/12/06 13:20:55;;;;;;;4.90;2.72;;;;;;;;;;4995977;28;98821;-71
2022/12/06 13:23:33;;;;;;;6.22;2.60;;;;;;;;;;5000090;28;98756;-72
2022/12/06 13:26:12;;;;;;;2.78;1.95;;;;;;;;;;4996171;28;99582;-72
2022/12/06 13:28:42;;;;;;;5.88;2.70;;;;;;;;;;5000047;28;98620;-71
2022/12/06 13:31:23;;;;;;;2.42;2.22;;;;;;;;;;5003907;28;99470;-71
2022/12/06 13:33:52;;;;;;;3.35;2.03;;;;;;;;;;5000372;28;99962;-72
2022/12/06 13:36:19;;;;;;;3.35;2.33;;;;;;;;;;5007671;28;98834;-72
2022/12/06 13:38:46;;;;;;;4.20;3.53;;;;;;;;;;4998996;28;100206;-71
2022/12/06 13:41:13;;;;;;;3.38;2.25;;;;;;;;;;4993278;28;98290;-72
2022/12/06 13:43:40;;;;;;;4.35;2.35;;;;;;;;;;4992429;28;99414;-72
2022/12/06 13:46:06;;;;;;;3.83;2.10;;;;;;;;;;4997368;28;100811;-72
2022/12/06 13:48:32;;;;;;;3.45;2.30;;;;;;;;;;5003001;28;98287;-72
2022/12/06 13:51:03;;;;;;;4.68;2.63;;;;;;;;;;4990423;28;99862;-72
2022/12/06 13:53:34;;;;;;;3.42;2.70;;;;;;;;;;4991094;28;100343;-72
2022/12/06 13:56:19;;;;;;;8.13;2.80;;;;;;;;;;4994986;28;98271;-72
2022/12/06 13:58:51;;;;;;;5.32;2.90;;;;;;;;;;4998631;28;100194;-73
2022/12/06 14:01:34;;;;;;;5.53;3.13;;;;;;;;;;4996345;28;98288;-71
2022/12/06 14:04:26;;;;;;;8.95;2.88;;;;;;;;;;5004321;28;98799;-72
2022/12/06 14:07:01;;;;;;;5.90;2.85;;;;;;;;;;5002324;28;98830;-73
2022/12/06 14:09:38;;;;;;;5.40;2.40;;;;;;;;;;4999070;28;98441;-72
2022/12/06 14:12:24;;;;;;;3.63;2.50;;;;;;;;;;4994208;28;99208;-73
2022/12/06 14:14:55;;;;;;;7.00;2.60;;;;;;;;;;4996159;28;100028;-73
2022/12/06 14:17:24;;;;;;;5.32;2.35;;;;;;;;;;5004999;28;98332;-72
2022/12/06 14:20:29;;;;;;;4.07;2.60;;;;;;;;;;5001966;28;99432;-72
2022/12/06 14:22:55;;;;;;;6.57;2.47;;;;;;;;;;4999162;28;98279;-72
2022/12/06 14:25:24;;;;;;;5.63;2.78;;;;;;;;;;4988207;28;98672;-72
2022/12/06 14:27:59;;;;;;;3.90;2.40;;;;;;;;;;4992105;28;99110;-71
2022/12/06 14:30:25;;;;;;;6.40;2.67;;;;;;;;;;4990931;28;98275;-72
2022/12/06 14:32:53;;;;;;;3.88;2.53;;;;;;;;;;5006590;28;98983;-72
2022/12/06 14:35:21;;;;;;;4.82;2.78;;;;;;;;;;4997256;28;100649;-71
2022/12/06 14:37:49;;;;;;;3.20;2.58;;;;;;;;;;4999382;28;98280;-71
2022/12/06 14:40:23;;;;;;;5.43;3.45;;;;;;;;;;4996270;28;99675;-72
2022/12/06 14:43:15;;;;;;;5.50;2.30;;;;;;;;;;5006478;28;100388;-72
2022/12/06 14:45:42;;;;;;;4.25;2.40;;;;;;;;;;4987480;28;99346;-72
2022/12/06 14:48:09;;;;;;;5.72;2.60;;;;;;;;;;4993806;28;99940;-73
2022/12/06 14:50:40;;;;;;;9.95;2.65;;;;;;;;;;4999273;28;98659;-73
2022/12/06 14:53:10;;;;;;;4.10;2.30;;;;;;;;;;5006541;28;99405;-72
2022/12/06 14:55:54;;;;;;;5.40;2.35;;;;;;;;;;4986183;28;99271;-72
2022/12/06 14:58:41;;;;;;;4.88;2.67;;;;;;;;;;4995506;28;98710;-72
2022/12/06 15:01:18;;;;;;;4.22;1.90;;;;;;;;;;4994683;28;99555;-71
2022/12/06 15:03:55;;;;;;;3.50;2.08;;;;;;;;;;4993598;28;99369;-72
2022/12/06 15:06:22;;;;;;;2.67;1.75;;;;;;;;;;4989488;28;99553;-72
2022/12/06 15:09:09;;;;;;;5.68;2.03;;;;;;;;;;4997105;28;99174;-73
2022/12/06 15:14:24;;;;;;;2.95;2.10;;;;;;;;;;5001361;28;100197;-72
2022/12/06 15:16:58;;;;;;;2.33;2.10;;;;;;;;;;5003826;28;100119;-70
2022/12/06 15:19:25;;;;;;;2.38;2.17;;;;;;;;;;4996128;28;98165;-71
2022/12/06 15:21:52;;;;;;;2.63;1.92;;;;;;;;;;4996923;28;100054;-70
2022/12/06 15:24:20;;;;;;;2.63;2.10;;;;;;;;;;4996778;28;98989;-71